sensor_id;sensor_type;location;lat;lon;timestamp;pressure;altitude;pressure_sealevel;temperature;humidity
72950;BME280;64868;45.710;9.590;2024-02-28T00:01:51;98569.66;;;8.28;89.45
72950;BME280;64868;45.710;9.590;2024-02-28T00:04:17;98559.94;;;8.27;90.14
72950;BME280;64868;45.710;9.590;2024-02-28T00:06:55;98590.38;;;8.46;90.06
72950;BME280;64868;45.710;9.590;2024-02-28T00:09:23;98551.28;;;8.16;90.56
72950;BME280;64868;45.710;9.590;2024-02-28T00:11:55;98520.00;;;7.88;89.88
72950;BME280;64868;45.710;9.590;2024-02-28T00:14:23;98567.94;;;8.10;90.45
72950;BME280;64868;45.710;9.590;2024-02-28T00:16:51;98600.53;;;8.18;89.95
72950;BME280;64868;45.710;9.590;2024-02-28T00:19:46;98635.28;;;8.39;90.09
72950;BME280;64868;45.710;9.590;2024-02-28T00:22:12;98550.28;;;7.90;91.16
72950;BME280;64868;45.710;9.590;2024-02-28T00:24:58;98633.38;;;8.39;90.71
72950;BME280;64868;45.710;9.590;2024-02-28T00:27:27;98547.19;;;7.83;90.97
72950;BME280;64868;45.710;9.590;2024-02-28T00:30:23;98628.03;;;8.34;91.32
72950;BME280;64868;45.710;9.590;2024-02-28T00:32:54;98583.41;;;8.09;90.71
72950;BME280;64868;45.710;9.590;2024-02-28T00:35:30;98547.19;;;7.83;91.28
72950;BME280;64868;45.710;9.590;2024-02-28T00:38:08;98607.34;;;8.16;90.63
72950;BME280;64868;45.710;9.590;2024-02-28T00:40:40;98537.69;;;7.71;91.72
72950;BME280;64868;45.710;9.590;2024-02-28T00:43:07;98599.16;;;8.07;91.88
72950;BME280;64868;45.710;9.590;2024-02-28T00:45:42;98578.31;;;7.94;91.22
72950;BME280;64868;45.710;9.590;2024-02-28T00:48:11;98571.72;;;7.86;91.87
72950;BME280;64868;45.710;9.590;2024-02-28T00:50:50;98584.44;;;7.99;91.55
72950;BME280;64868;45.710;9.590;2024-02-28T00:53:34;98565.16;;;7.79;91.51
72950;BME280;64868;45.710;9.590;2024-02-28T00:56:00;98597.19;;;7.99;91.50
72950;BME280;64868;45.710;9.590;2024-02-28T01:01:40;98585.00;;;7.88;90.10
72950;BME280;64868;45.710;9.590;2024-02-28T01:04:30;98668.47;;;8.44;91.06
72950;BME280;64868;45.710;9.590;2024-02-28T01:07:09;98622.78;;;8.15;91.09
72950;BME280;64868;45.710;9.590;2024-02-28T01:09:36;98598.59;;;7.96;90.14
72950;BME280;64868;45.710;9.590;2024-02-28T01:12:03;98616.22;;;8.08;89.96
72950;BME280;64868;45.710;9.590;2024-02-28T01:14:37;98649.53;;;8.30;90.50
72950;BME280;64868;45.710;9.590;2024-02-28T01:17:13;98677.16;;;8.55;89.53
72950;BME280;64868;45.710;9.590;2024-02-28T01:19:44;98626.50;;;8.19;89.99
72950;BME280;64868;45.710;9.590;2024-02-28T01:22:10;98637.84;;;8.21;89.65
72950;BME280;64868;45.710;9.590;2024-02-28T01:24:36;98599.28;;;8.02;89.76
72950;BME280;64868;45.710;9.590;2024-02-28T01:27:03;98621.72;;;8.16;89.54
72950;BME280;64868;45.710;9.590;2024-02-28T01:29:50;98675.09;;;8.52;90.51
72950;BME280;64868;45.710;9.590;2024-02-28T01:32:44;98669.88;;;8.55;90.34
72950;BME280;64868;45.710;9.590;2024-02-28T01:35:17;98590.84;;;8.03;89.66
72950;BME280;64868;45.710;9.590;2024-02-28T01:37:44;98634.56;;;8.33;90.00
72950;BME280;64868;45.710;9.590;2024-02-28T01:40:12;98600.16;;;8.11;90.64
72950;BME280;64868;45.710;9.590;2024-02-28T01:42:46;98671.75;;;8.55;90.73
72950;BME280;64868;45.710;9.590;2024-02-28T01:45:14;98643.22;;;8.35;89.41
72950;BME280;64868;45.710;9.590;2024-02-28T01:47:55;98684.41;;;8.59;90.08
72950;BME280;64868;45.710;9.590;2024-02-28T01:50:21;98613.28;;;8.18;89.95
72950;BME280;64868;45.710;9.590;2024-02-28T01:52:48;98648.34;;;8.37;89.87
72950;BME280;64868;45.710;9.590;2024-02-28T01:55:15;98594.16;;;8.00;90.23
72950;BME280;64868;45.710;9.590;2024-02-28T01:58:07;98680.81;;;8.50;90.30
72950;BME280;64868;45.710;9.590;2024-02-28T02:00:56;98678.41;;;8.49;90.18
72950;BME280;64868;45.710;9.590;2024-02-28T02:03:24;98598.88;;;7.95;90.16
72950;BME280;64868;45.710;9.590;2024-02-28T02:05:50;98610.03;;;7.93;91.17
72950;BME280;64868;45.710;9.590;2024-02-28T02:08:16;98689.19;;;8.40;90.85
72950;BME280;64868;45.710;9.590;2024-02-28T02:10:43;98602.22;;;7.92;90.90
72950;BME280;64868;45.710;9.590;2024-02-28T02:13:12;98670.03;;;8.37;90.69
72950;BME280;64868;45.710;9.590;2024-02-28T02:18:24;98643.25;;;8.21;90.94
72950;BME280;64868;45.710;9.590;2024-02-28T02:21:02;98659.09;;;8.28;90.82
72950;BME280;64868;45.710;9.590;2024-02-28T02:23:30;98601.41;;;7.91;91.23
72950;BME280;64868;45.710;9.590;2024-02-28T02:25:58;98627.22;;;8.11;90.32
72950;BME280;64868;45.710;9.590;2024-02-28T02:28:25;98620.44;;;8.00;90.37
72950;BME280;64868;45.710;9.590;2024-02-28T02:30:50;98595.03;;;7.87;90.25
72950;BME280;64868;45.710;9.590;2024-02-28T02:33:16;98610.53;;;7.95;90.38
72950;BME280;64868;45.710;9.590;2024-02-28T02:35:52;98648.66;;;8.21;89.75
72950;BME280;64868;45.710;9.590;2024-02-28T02:38:19;98621.75;;;8.02;88.84
72950;BME280;64868;45.710;9.590;2024-02-28T02:40:59;98626.84;;;8.04;89.28
72950;BME280;64868;45.710;9.590;2024-02-28T02:43:34;98646.38;;;8.15;89.97
72950;BME280;64868;45.710;9.590;2024-02-28T02:46:21;98701.69;;;8.50;89.92
72950;BME280;64868;45.710;9.590;2024-02-28T02:48:46;98670.75;;;8.28;90.20
72950;BME280;64868;45.710;9.590;2024-02-28T02:51:21;98627.66;;;8.04;89.36
72950;BME280;64868;45.710;9.590;2024-02-28T02:53:47;98627.56;;;7.96;89.65
72950;BME280;64868;45.710;9.590;2024-02-28T02:56:36;98711.25;;;8.47;89.22
72950;BME280;64868;45.710;9.590;2024-02-28T02:59:09;98634.41;;;7.93;90.27
72950;BME280;64868;45.710;9.590;2024-02-28T03:01:56;98716.38;;;8.49;90.31
72950;BME280;64868;45.710;9.590;2024-02-28T03:04:30;98694.19;;;8.33;89.68
72950;BME280;64868;45.710;9.590;2024-02-28T03:06:57;98654.44;;;8.06;89.79
72950;BME280;64868;45.710;9.590;2024-02-28T03:09:23;98743.34;;;8.54;89.43
72950;BME280;64868;45.710;9.590;2024-02-28T03:11:50;98658.47;;;8.09;89.45
72950;BME280;64868;45.710;9.590;2024-02-28T03:14:22;98747.56;;;8.60;88.58
72950;BME280;64868;45.710;9.590;2024-02-28T03:16:59;98731.28;;;8.60;88.57
72950;BME280;64868;45.710;9.590;2024-02-28T03:19:47;98750.97;;;8.66;88.05
72950;BME280;64868;45.710;9.590;2024-02-28T03:22:32;98750.66;;;8.67;87.78
72950;BME280;64868;45.710;9.590;2024-02-28T03:25:18;98714.06;;;8.42;87.88
72950;BME280;64868;45.710;9.590;2024-02-28T03:27:44;98710.69;;;8.37;88.26
72950;BME280;64868;45.710;9.590;2024-02-28T03:30:18;98666.19;;;8.01;88.99
72950;BME280;64868;45.710;9.590;2024-02-28T03:32:46;98702.69;;;8.18;88.88
72950;BME280;64868;45.710;9.590;2024-02-28T03:35:17;98730.34;;;8.28;88.90
72950;BME280;64868;45.710;9.590;2024-02-28T03:37:44;98677.56;;;7.90;89.46
72950;BME280;64868;45.710;9.590;2024-02-28T03:40:17;98743.91;;;8.28;88.68
72950;BME280;64868;45.710;9.590;2024-02-28T03:42:43;98773.91;;;8.46;89.26
72950;BME280;64868;45.710;9.590;2024-02-28T03:45:15;98689.09;;;7.82;90.29
72950;BME280;64868;45.710;9.590;2024-02-28T03:47:49;98704.44;;;7.86;90.07
72950;BME280;64868;45.710;9.590;2024-02-28T03:50:23;98763.91;;;8.19;90.87
72950;BME280;64868;45.710;9.590;2024-02-28T03:52:50;98705.84;;;7.84;91.50
72950;BME280;64868;45.710;9.590;2024-02-28T03:55:28;98737.03;;;7.95;92.18
72950;BME280;64868;45.710;9.590;2024-02-28T03:57:57;98781.03;;;8.28;92.63
72950;BME280;64868;45.710;9.590;2024-02-28T04:00:23;98756.06;;;8.03;92.87
72950;BME280;64868;45.710;9.590;2024-02-28T04:02:51;98711.47;;;7.73;92.30
72950;BME280;64868;45.710;9.590;2024-02-28T04:05:17;98698.22;;;7.72;92.63
72950;BME280;64868;45.710;9.590;2024-02-28T04:07:50;98752.06;;;8.01;91.88
72950;BME280;64868;45.710;9.590;2024-02-28T04:10:29;98773.94;;;8.18;93.05
72950;BME280;64868;45.710;9.590;2024-02-28T04:12:55;98756.88;;;8.04;92.76
72950;BME280;64868;45.710;9.590;2024-02-28T04:15:28;98794.09;;;8.26;92.51
72950;BME280;64868;45.710;9.590;2024-02-28T04:18:06;98761.19;;;8.05;93.13
72950;BME280;64868;45.710;9.590;2024-02-28T04:20:38;98764.91;;;8.09;91.87
72950;BME280;64868;45.710;9.590;2024-02-28T04:23:17;98750.38;;;7.91;92.28
72950;BME280;64868;45.710;9.590;2024-02-28T04:25:43;98738.25;;;7.89;92.92
72950;BME280;64868;45.710;9.590;2024-02-28T04:28:15;98784.56;;;8.15;93.40
72950;BME280;64868;45.710;9.590;2024-02-28T04:30:51;98735.22;;;7.76;92.65
72950;BME280;64868;45.710;9.590;2024-02-28T04:33:17;98727.09;;;7.76;92.95
72950;BME280;64868;45.710;9.590;2024-02-28T04:35:49;98729.53;;;7.78;93.71
72950;BME280;64868;45.710;9.590;2024-02-28T04:38:23;98731.84;;;7.71;92.98
72950;BME280;64868;45.710;9.590;2024-02-28T04:44:00;98781.97;;;7.96;93.32
72950;BME280;64868;45.710;9.590;2024-02-28T04:46:28;98812.88;;;8.09;93.71
72950;BME280;64868;45.710;9.590;2024-02-28T04:48:54;98773.94;;;7.91;93.31
72950;BME280;64868;45.710;9.590;2024-02-28T04:51:32;98760.63;;;7.81;94.15
72950;BME280;64868;45.710;9.590;2024-02-28T04:54:02;98760.69;;;7.75;93.63
72950;BME280;64868;45.710;9.590;2024-02-28T04:56:42;98758.09;;;7.70;93.50
72950;BME280;64868;45.710;9.590;2024-02-28T04:59:12;98764.13;;;7.81;93.94
72950;BME280;64868;45.710;9.590;2024-02-28T05:04:53;98815.88;;;8.07;94.23
72950;BME280;64868;45.710;9.590;2024-02-28T05:07:24;98785.97;;;7.85;93.74
72950;BME280;64868;45.710;9.590;2024-02-28T05:09:56;98782.78;;;7.83;94.63
72950;BME280;64868;45.710;9.590;2024-02-28T05:12:24;98826.31;;;8.14;94.42
72950;BME280;64868;45.710;9.590;2024-02-28T05:14:50;98802.34;;;7.93;93.50
72950;BME280;64868;45.710;9.590;2024-02-28T05:17:18;98779.75;;;7.84;94.47
72950;BME280;64868;45.710;9.590;2024-02-28T05:19:53;98808.97;;;8.01;93.27
72950;BME280;64868;45.710;9.590;2024-02-28T05:22:22;98834.66;;;8.17;94.32
72950;BME280;64868;45.710;9.590;2024-02-28T05:24:49;98782.59;;;7.79;94.04
72950;BME280;64868;45.710;9.590;2024-02-28T05:27:15;98838.75;;;8.15;94.09
72950;BME280;64868;45.710;9.590;2024-02-28T05:29:44;98850.09;;;8.17;94.16
72950;BME280;64868;45.710;9.590;2024-02-28T05:32:11;98838.25;;;8.13;93.28
72950;BME280;64868;45.710;9.590;2024-02-28T05:34:45;98876.59;;;8.33;93.96
72950;BME280;64868;45.710;9.590;2024-02-28T05:37:11;98870.66;;;8.31;93.89
72950;BME280;64868;45.710;9.590;2024-02-28T05:39:37;98868.25;;;8.30;92.96
72950;BME280;64868;45.710;9.590;2024-02-28T05:42:03;98874.47;;;8.30;93.70
72950;BME280;64868;45.710;9.590;2024-02-28T05:44:35;98802.03;;;7.81;93.81
72950;BME280;64868;45.710;9.590;2024-02-28T05:47:01;98871.59;;;8.27;93.58
72950;BME280;64868;45.710;9.590;2024-02-28T05:49:27;98806.66;;;7.81;93.06
72950;BME280;64868;45.710;9.590;2024-02-28T05:51:59;98813.28;;;7.88;93.12
72950;BME280;64868;45.710;9.590;2024-02-28T05:54:26;98881.50;;;8.31;93.76
72950;BME280;64868;45.710;9.590;2024-02-28T05:57:04;98860.16;;;8.16;93.17
72950;BME280;64868;45.710;9.590;2024-02-28T05:59:33;98804.25;;;7.79;93.87
72950;BME280;64868;45.710;9.590;2024-02-28T06:02:01;98810.34;;;7.85;93.02
72950;BME280;64868;45.710;9.590;2024-02-28T06:04:32;98815.69;;;7.90;93.68
72950;BME280;64868;45.710;9.590;2024-02-28T06:07:17;98895.38;;;8.44;92.39
72950;BME280;64868;45.710;9.590;2024-02-28T06:09:53;98895.06;;;8.45;93.48
72950;BME280;64868;45.710;9.590;2024-02-28T06:12:21;98901.81;;;8.48;92.50
72950;BME280;64868;45.710;9.590;2024-02-28T06:14:48;98811.47;;;7.97;93.20
72950;BME280;64868;45.710;9.590;2024-02-28T06:17:23;98856.22;;;8.22;93.15
72950;BME280;64868;45.710;9.590;2024-02-28T06:19:50;98828.72;;;8.01;92.79
72950;BME280;64868;45.710;9.590;2024-02-28T06:22:16;98838.75;;;8.01;92.48
72950;BME280;64868;45.710;9.590;2024-02-28T06:24:56;98917.78;;;8.49;93.35
72950;BME280;64868;45.710;9.590;2024-02-28T06:27:27;98919.69;;;8.49;93.06
72950;BME280;64868;45.710;9.590;2024-02-28T06:29:58;98831.81;;;7.95;92.23
72950;BME280;64868;45.710;9.590;2024-02-28T06:32:24;98937.56;;;8.50;92.69
72950;BME280;64868;45.710;9.590;2024-02-28T06:34:53;98937.66;;;8.45;92.08
72950;BME280;64868;45.710;9.590;2024-02-28T06:37:19;98855.09;;;7.96;92.97
72950;BME280;64868;45.710;9.590;2024-02-28T06:39:54;98868.06;;;7.99;92.07
72950;BME280;64868;45.710;9.590;2024-02-28T06:42:41;98920.88;;;8.43;91.69
72950;BME280;64868;45.710;9.590;2024-02-28T06:45:20;98867.25;;;8.12;91.32
72950;BME280;64868;45.710;9.590;2024-02-28T06:53:22;98883.53;;;8.26;90.96
72950;BME280;64868;45.710;9.590;2024-02-28T06:55:53;98969.97;;;8.82;89.98
72950;BME280;64868;45.710;9.590;2024-02-28T06:58:34;98975.09;;;8.84;90.94
72950;BME280;64868;45.710;9.590;2024-02-28T07:01:08;98895.38;;;8.30;90.82
72950;BME280;64868;45.710;9.590;2024-02-28T07:03:46;98930.72;;;8.52;90.48
72950;BME280;64868;45.710;9.590;2024-02-28T07:06:42;98974.28;;;8.83;89.13
72950;BME280;64868;45.710;9.590;2024-02-28T07:09:09;98909.63;;;8.36;89.64
72950;BME280;64868;45.710;9.590;2024-02-28T07:11:34;98901.09;;;8.42;88.27
72950;BME280;64868;45.710;9.590;2024-02-28T07:14:01;99000.41;;;8.93;87.93
72950;BME280;64868;45.710;9.590;2024-02-28T07:16:35;98921.50;;;8.40;89.02
72950;BME280;64868;45.710;9.590;2024-02-28T07:19:13;99002.81;;;8.95;88.75
72950;BME280;64868;45.710;9.590;2024-02-28T07:21:41;98947.22;;;8.56;87.46
72950;BME280;64868;45.710;9.590;2024-02-28T07:24:10;98925.81;;;8.41;88.51
72950;BME280;64868;45.710;9.590;2024-02-28T07:26:39;98934.66;;;8.46;87.54
72950;BME280;64868;45.710;9.590;2024-02-28T07:29:19;98974.00;;;8.71;87.62
72950;BME280;64868;45.710;9.590;2024-02-28T07:31:49;98924.41;;;8.43;88.96
72950;BME280;64868;45.710;9.590;2024-02-28T07:34:15;98940.16;;;8.55;88.68
72950;BME280;64868;45.710;9.590;2024-02-28T07:36:44;98960.44;;;8.71;87.76
72950;BME280;64868;45.710;9.590;2024-02-28T07:39:16;98948.69;;;8.62;88.19
72950;BME280;64868;45.710;9.590;2024-02-28T07:41:43;98939.94;;;8.65;88.02
72950;BME280;64868;45.710;9.590;2024-02-28T07:44:10;98935.63;;;8.64;87.82
72950;BME280;64868;45.710;9.590;2024-02-28T07:46:41;98941.59;;;8.66;88.47
72950;BME280;64868;45.710;9.590;2024-02-28T07:55:16;98977.69;;;9.03;89.01
72950;BME280;64868;45.710;9.590;2024-02-28T07:57:45;98958.81;;;8.84;88.31
72950;BME280;64868;45.710;9.590;2024-02-28T08:00:14;98977.19;;;9.01;87.64
72950;BME280;64868;45.710;9.590;2024-02-28T08:02:44;99027.09;;;9.41;87.70
72950;BME280;64868;45.710;9.590;2024-02-28T08:05:16;98949.78;;;8.88;87.00
72950;BME280;64868;45.710;9.590;2024-02-28T08:07:55;98955.31;;;8.97;86.72
72950;BME280;64868;45.710;9.590;2024-02-28T08:10:21;99011.72;;;9.36;87.07
72950;BME280;64868;45.710;9.590;2024-02-28T08:12:53;98981.06;;;9.22;87.06
72950;BME280;64868;45.710;9.590;2024-02-28T08:15:23;98959.50;;;9.17;86.92
72950;BME280;64868;45.710;9.590;2024-02-28T08:17:56;99029.03;;;9.63;86.74
72950;BME280;64868;45.710;9.590;2024-02-28T08:23:05;98978.44;;;9.44;86.90
72950;BME280;64868;45.710;9.590;2024-02-28T08:25:36;99053.88;;;9.92;87.87
72950;BME280;64868;45.710;9.590;2024-02-28T08:42:42;98981.13;;;10.34;84.14
72950;BME280;64868;45.710;9.590;2024-02-28T08:45:12;99016.09;;;10.98;82.94
72950;BME280;64868;45.710;9.590;2024-02-28T08:47:38;98991.03;;;11.27;81.37
72950;BME280;64868;45.710;9.590;2024-02-28T08:50:08;98986.75;;;11.60;78.46
72950;BME280;64868;45.710;9.590;2024-02-28T08:52:38;99036.13;;;12.19;76.70
72950;BME280;64868;45.710;9.590;2024-02-28T08:57:38;99001.78;;;12.18;75.40
72950;BME280;64868;45.710;9.590;2024-02-28T09:00:06;99047.38;;;12.73;74.39
72950;BME280;64868;45.710;9.590;2024-02-28T09:02:35;99045.88;;;12.84;72.58
72950;BME280;64868;45.710;9.590;2024-02-28T09:05:04;99048.59;;;12.93;71.70
72950;BME280;64868;45.710;9.590;2024-02-28T09:10:46;99049.59;;;13.18;71.22
72950;BME280;64868;45.710;9.590;2024-02-28T09:13:35;99095.03;;;13.61;70.01
72950;BME280;64868;45.710;9.590;2024-02-28T09:19:30;99009.78;;;15.15;64.56
72950;BME280;64868;45.710;9.590;2024-02-28T09:22:26;99096.91;;;18.51;55.76
72950;BME280;64868;45.710;9.590;2024-02-28T09:28:14;99020.00;;;19.91;50.29
72950;BME280;64868;45.710;9.590;2024-02-28T09:30:44;99025.44;;;19.84;48.13
72950;BME280;64868;45.710;9.590;2024-02-28T09:33:15;99025.28;;;20.37;44.94
72950;BME280;64868;45.710;9.590;2024-02-28T09:35:43;99028.03;;;20.03;46.80
72950;BME280;64868;45.710;9.590;2024-02-28T09:38:10;99032.13;;;18.80;50.48
72950;BME280;64868;45.710;9.590;2024-02-28T09:40:36;99065.91;;;17.61;53.65
72950;BME280;64868;45.710;9.590;2024-02-28T09:43:04;99042.16;;;17.37;53.75
72950;BME280;64868;45.710;9.590;2024-02-28T09:45:47;99095.78;;;17.78;53.94
72950;BME280;64868;45.710;9.590;2024-02-28T09:48:19;99067.66;;;18.24;50.97
72950;BME280;64868;45.710;9.590;2024-02-28T09:50:46;99042.09;;;18.66;49.80
72950;BME280;64868;45.710;9.590;2024-02-28T09:53:14;99092.81;;;19.30;49.16
72950;BME280;64868;45.710;9.590;2024-02-28T09:55:41;99064.03;;;20.10;44.91
72950;BME280;64868;45.710;9.590;2024-02-28T09:58:07;99036.75;;;20.05;44.29
72950;BME280;64868;45.710;9.590;2024-02-28T10:00:35;99034.97;;;19.60;44.36
72950;BME280;64868;45.710;9.590;2024-02-28T10:03:03;99027.56;;;18.26;47.88
72950;BME280;64868;45.710;9.590;2024-02-28T10:05:33;99040.84;;;18.01;50.51
72950;BME280;64868;45.710;9.590;2024-02-28T10:08:20;99103.59;;;18.31;50.25
72950;BME280;64868;45.710;9.590;2024-02-28T10:11:01;99087.31;;;17.87;50.38
72950;BME280;64868;45.710;9.590;2024-02-28T10:13:27;99104.88;;;18.56;50.93
72950;BME280;64868;45.710;9.590;2024-02-28T10:15:57;99074.94;;;19.20;49.90
72950;BME280;64868;45.710;9.590;2024-02-28T10:18:32;99110.38;;;20.24;47.02
72950;BME280;64868;45.710;9.590;2024-02-28T10:21:06;99078.34;;;20.19;45.75
72950;BME280;64868;45.710;9.590;2024-02-28T10:23:35;99038.34;;;20.06;45.37
72950;BME280;64868;45.710;9.590;2024-02-28T10:26:15;99113.03;;;19.87;47.17
72950;BME280;64868;45.710;9.590;2024-02-28T10:28:41;99045.59;;;19.35;45.52
72950;BME280;64868;45.710;9.590;2024-02-28T10:31:09;99094.53;;;20.51;44.08
72950;BME280;64868;45.710;9.590;2024-02-28T10:33:43;99071.03;;;21.60;41.30
72950;BME280;64868;45.710;9.590;2024-02-28T10:36:10;99056.72;;;21.47;40.82
72950;BME280;64868;45.710;9.590;2024-02-28T10:41:47;99087.88;;;19.65;45.78
72950;BME280;64868;45.710;9.590;2024-02-28T10:44:16;99051.47;;;18.42;49.42
72950;BME280;64868;45.710;9.590;2024-02-28T10:46:44;99117.19;;;18.04;51.71
72950;BME280;64868;45.710;9.590;2024-02-28T10:49:14;99077.31;;;16.97;54.46
72950;BME280;64868;45.710;9.590;2024-02-28T10:51:45;99053.38;;;16.38;56.72
72950;BME280;64868;45.710;9.590;2024-02-28T10:54:13;99062.94;;;16.44;57.67
72950;BME280;64868;45.710;9.590;2024-02-28T10:56:55;99133.44;;;17.27;56.83
72950;BME280;64868;45.710;9.590;2024-02-28T10:59:29;99129.47;;;17.40;54.92
72950;BME280;64868;45.710;9.590;2024-02-28T11:01:55;99120.38;;;17.56;53.31
72950;BME280;64868;45.710;9.590;2024-02-28T11:04:30;99119.13;;;17.69;53.54
72950;BME280;64868;45.710;9.590;2024-02-28T11:07:02;99142.63;;;17.66;52.66
72950;BME280;64868;45.710;9.590;2024-02-28T11:09:30;99134.53;;;17.23;54.00
72950;BME280;64868;45.710;9.590;2024-02-28T11:12:01;99135.16;;;16.72;55.40
72950;BME280;64868;45.710;9.590;2024-02-28T11:14:58;99129.53;;;16.41;58.17
72950;BME280;64868;45.710;9.590;2024-02-28T11:20:46;99129.19;;;16.02;59.55
72950;BME280;64868;45.710;9.590;2024-02-28T11:23:25;99101.34;;;15.88;58.54
72950;BME280;64868;45.710;9.590;2024-02-28T11:25:57;99105.44;;;15.94;59.01
72950;BME280;64868;45.710;9.590;2024-02-28T11:28:23;99129.84;;;16.11;58.43
72950;BME280;64868;45.710;9.590;2024-02-28T11:30:50;99124.84;;;16.13;59.01
72950;BME280;64868;45.710;9.590;2024-02-28T11:33:17;99141.28;;;16.25;59.53
72950;BME280;64868;45.710;9.590;2024-02-28T11:35:56;99126.84;;;16.28;58.19
72950;BME280;64868;45.710;9.590;2024-02-28T11:38:26;99133.88;;;16.42;57.16
72950;BME280;64868;45.710;9.590;2024-02-28T11:40:54;99137.56;;;16.74;57.48
72950;BME280;64868;45.710;9.590;2024-02-28T11:43:38;99130.69;;;17.27;56.39
72950;BME280;64868;45.710;9.590;2024-02-28T11:46:10;99120.31;;;17.36;54.44
72950;BME280;64868;45.710;9.590;2024-02-28T11:48:39;99097.97;;;17.06;54.96
72950;BME280;64868;45.710;9.590;2024-02-28T11:51:06;99088.03;;;16.86;55.01
72950;BME280;64868;45.710;9.590;2024-02-28T11:53:32;99080.34;;;16.91;55.02
72950;BME280;64868;45.710;9.590;2024-02-28T11:56:10;99051.97;;;16.72;54.67
72950;BME280;64868;45.710;9.590;2024-02-28T11:58:35;99052.69;;;16.56;55.61
72950;BME280;64868;45.710;9.590;2024-02-28T12:01:02;99128.25;;;16.78;55.94
72950;BME280;64868;45.710;9.590;2024-02-28T12:03:30;99047.28;;;16.16;54.68
72950;BME280;64868;45.710;9.590;2024-02-28T12:14:15;99110.59;;;18.09;51.38
72950;BME280;64868;45.710;9.590;2024-02-28T12:23:16;99108.22;;;20.74;44.02
72950;BME280;64868;45.710;9.590;2024-02-28T12:28:26;99020.88;;;20.66;40.11
72950;BME280;64868;45.710;9.590;2024-02-28T12:31:01;99032.50;;;20.85;41.26
72950;BME280;64868;45.710;9.590;2024-02-28T12:33:31;99027.94;;;21.07;40.49
72950;BME280;64868;45.710;9.590;2024-02-28T12:36:07;99056.34;;;21.48;39.50
72950;BME280;64868;45.710;9.590;2024-02-28T12:41:34;99045.59;;;21.36;37.47
72950;BME280;64868;45.710;9.590;2024-02-28T12:44:07;98998.91;;;20.43;39.83
72950;BME280;64868;45.710;9.590;2024-02-28T12:46:34;98995.41;;;20.94;38.88
72950;BME280;64868;45.710;9.590;2024-02-28T12:49:03;99029.50;;;21.60;37.37
72950;BME280;64868;45.710;9.590;2024-02-28T12:51:41;98981.78;;;20.30;38.63
72950;BME280;64868;45.710;9.590;2024-02-28T12:54:16;99005.03;;;19.92;40.86
72950;BME280;64868;45.710;9.590;2024-02-28T12:56:50;98985.66;;;18.79;42.66
72950;BME280;64868;45.710;9.590;2024-02-28T12:59:29;98981.03;;;18.86;42.39
72950;BME280;64868;45.710;9.590;2024-02-28T13:02:06;99050.09;;;19.99;41.66
72950;BME280;64868;45.710;9.590;2024-02-28T13:04:49;99046.84;;;20.57;40.38
72950;BME280;64868;45.710;9.590;2024-02-28T13:07:42;99034.38;;;21.22;38.61
72950;BME280;64868;45.710;9.590;2024-02-28T13:10:14;98966.22;;;20.96;38.36
72950;BME280;64868;45.710;9.590;2024-02-28T13:12:53;99040.78;;;21.30;38.27
72950;BME280;64868;45.710;9.590;2024-02-28T13:15:34;98973.66;;;20.07;38.76
72950;BME280;64868;45.710;9.590;2024-02-28T13:18:19;98956.03;;;19.55;41.07
72950;BME280;64868;45.710;9.590;2024-02-28T13:21:12;99021.81;;;20.10;41.62
72950;BME280;64868;45.710;9.590;2024-02-28T13:23:57;98993.81;;;20.11;40.35
72950;BME280;64868;45.710;9.590;2024-02-28T13:26:31;98966.03;;;19.63;41.70
72950;BME280;64868;45.710;9.590;2024-02-28T13:29:04;98976.34;;;19.40;41.37
72950;BME280;64868;45.710;9.590;2024-02-28T13:31:33;99047.78;;;19.75;42.29
72950;BME280;64868;45.710;9.590;2024-02-28T13:34:08;99049.59;;;19.37;42.26
72950;BME280;64868;45.710;9.590;2024-02-28T13:36:46;98980.78;;;18.49;43.63
72950;BME280;64868;45.710;9.590;2024-02-28T13:39:18;99050.94;;;18.55;45.26
72950;BME280;64868;45.710;9.590;2024-02-28T13:41:59;99051.91;;;18.05;45.14
72950;BME280;64868;45.710;9.590;2024-02-28T13:44:40;99004.34;;;16.99;47.36
72950;BME280;64868;45.710;9.590;2024-02-28T13:47:07;99011.44;;;16.69;48.23
72950;BME280;64868;45.710;9.590;2024-02-28T13:50:40;99057.09;;;16.89;49.18
72950;BME280;64868;45.710;9.590;2024-02-28T13:52:58;98980.06;;;16.10;49.65
72950;BME280;64868;45.710;9.590;2024-02-28T13:55:32;99059.34;;;16.55;49.65
72950;BME280;64868;45.710;9.590;2024-02-28T13:58:05;99029.81;;;16.37;50.34
72950;BME280;64868;45.710;9.590;2024-02-28T14:00:41;99006.78;;;15.97;50.29
72950;BME280;64868;45.710;9.590;2024-02-28T14:03:17;98985.47;;;15.78;51.26
72950;BME280;64868;45.710;9.590;2024-02-28T14:05:51;98992.19;;;15.81;51.08
72950;BME280;64868;45.710;9.590;2024-02-28T14:08:24;99005.31;;;15.88;51.42
72950;BME280;64868;45.710;9.590;2024-02-28T14:10:52;99019.84;;;15.88;52.65
72950;BME280;64868;45.710;9.590;2024-02-28T14:13:38;98989.38;;;15.53;51.58
72950;BME280;64868;45.710;9.590;2024-02-28T14:16:17;98998.44;;;15.54;52.75
72950;BME280;64868;45.710;9.590;2024-02-28T14:18:53;99036.78;;;15.78;54.22
72950;BME280;64868;45.710;9.590;2024-02-28T14:21:21;98995.50;;;15.22;54.60
72950;BME280;64868;45.710;9.590;2024-02-28T14:24:14;99072.22;;;15.59;58.24
72950;BME280;64868;45.710;9.590;2024-02-28T14:30:55;99082.50;;;15.01;60.30
72950;BME280;64868;45.710;9.590;2024-02-28T14:40:40;99012.22;;;14.14;62.63
72950;BME280;64868;45.710;9.590;2024-02-28T14:43:26;99035.53;;;14.32;63.47
72950;BME280;64868;45.710;9.590;2024-02-28T14:48:39;99087.81;;;14.73;62.69
72950;BME280;64868;45.710;9.590;2024-02-28T15:03:31;99090.97;;;15.08;62.83
72950;BME280;64868;45.710;9.590;2024-02-28T15:06:17;99020.97;;;14.86;61.65
72950;BME280;64868;45.710;9.590;2024-02-28T15:08:51;99050.88;;;15.40;61.23
72950;BME280;64868;45.710;9.590;2024-02-28T15:11:30;99070.03;;;16.45;56.87
72950;BME280;64868;45.710;9.590;2024-02-28T15:13:59;99023.47;;;16.64;55.56
72950;BME280;64868;45.710;9.590;2024-02-28T15:16:30;99089.88;;;17.61;54.00
72950;BME280;64868;45.710;9.590;2024-02-28T15:18:57;99087.13;;;17.29;53.48
72950;BME280;64868;45.710;9.590;2024-02-28T15:21:23;99055.28;;;16.65;55.95
72950;BME280;64868;45.710;9.590;2024-02-28T15:24:09;99094.69;;;17.01;55.95